KTMB/TMB METAR and TAF weather

Enter ICAO airport designator
Station Type Date Time Source
KTMB METAR 2021/07/29 18:06 UTC NOAA

KTMB 291806Z VRB05G17KT 8SM -TSRA BKN035 BKN046 OVC055 28/24 A3004 RMK AO2 LTG DSNT NE TSB02 P0003 T02830239 $


Station Type Date Time Source
KTMB Decoded METAR 2021/07/29 18:06 UTC NOAA

KENDALL-TAMIAMI EXEC AIRPORT , FL, United States (KTMB) 25-39N 080-26W 2M
Jul 29, 2021 - 02:06 PM EDT / 2021.07.29 1806 UTC
Wind: Variable at 6 MPH (5 KT) gusting to 20 MPH (17 KT):0
Visibility: 8 mile(s):0
Sky conditions: overcast
Weather: light rain with thunder; Lightning observed
Precipitation last hour: 0.03 inches
Temperature: 82.9 F (28.3 C)
Dew Point: 75.0 F (23.9 C)
Relative Humidity: 77%
Pressure (altimeter): 30.04 in. Hg (1017 hPa)
ob: KTMB 291806Z VRB05G17KT 8SM -TSRA BKN035 BKN046 OVC055 28/24 A3004 RMK AO2 LTG DSNT NE TSB02 P0003 T02830239
cycle: 18

Station Type Date Time Source
KTMB TAF 2021/07/29 18:57 UTC NOAA

TAF
AMD KTMB 291755Z 2918/3018 13007KT P6SM VCTS SCT030CB BKN050
TEMPO 2918/2919 4SM TSRA BKN030CB
FM292200 14008KT P6SM VCSH SCT030 BKN250
FM300200 VRB03KT P6SM FEW025 SCT250

Example: see airport list